createdAt,value
2022-08-27T05:19:17.869Z,96608.88
2022-08-27T05:20:20.055Z,96607.28
2022-08-27T05:21:29.297Z,96610.19
2022-08-27T05:22:31.533Z,96602.81
2022-08-27T05:23:34.071Z,96603.06
2022-08-27T05:24:39.059Z,96607.28
2022-08-27T05:25:42.479Z,96605.97
2022-08-27T05:26:44.642Z,96608.88
2022-08-27T05:27:46.440Z,96603.84
2022-08-27T05:28:48.533Z,96600.41
2022-08-27T05:29:50.398Z,96602.81
2022-08-27T05:30:55.773Z,96605.97
2022-08-27T05:31:58.172Z,96610.72
2022-08-27T05:33:00.080Z,96606.22
2022-08-27T05:34:02.195Z,96609.41
2022-08-27T05:35:15.586Z,96598.31
2022-08-27T05:36:28.419Z,96604.91
2022-08-27T05:37:30.617Z,96606.25
2022-08-27T05:38:33.256Z,96604.16
2022-08-27T05:39:35.058Z,96605.19
2022-08-27T05:40:37.624Z,96607.56
2022-08-27T05:41:39.784Z,96605.47
2022-08-27T05:42:42.955Z,96606.00
2022-08-27T05:43:50.665Z,96604.91
2022-08-27T05:44:52.972Z,96604.13
2022-08-27T05:45:54.873Z,96601.22
2022-08-27T05:46:56.750Z,96608.91
2022-08-27T05:47:59.024Z,96608.63
2022-08-27T05:49:02.027Z,96610.22
2022-08-27T05:50:04.141Z,96604.69
2022-08-27T05:51:11.815Z,96613.16
2022-08-27T05:52:13.847Z,96610.22
2022-08-27T05:53:15.640Z,96609.94
2022-08-27T05:54:19.955Z,96604.41
2022-08-27T05:55:22.105Z,96611.56
2022-08-27T05:56:25.466Z,96608.38
2022-08-27T05:57:27.410Z,96608.38
2022-08-27T05:58:47.773Z,96615.25
2022-08-27T06:00:08.010Z,96615.78
2022-08-27T06:01:21.111Z,96615.78
2022-08-27T06:02:23.059Z,96612.59
2022-08-27T06:03:24.899Z,96626.34
2022-08-27T06:04:26.775Z,96610.47
2022-08-27T06:05:28.710Z,96613.91
2022-08-27T06:06:30.931Z,96614.72
2022-08-27T06:07:33.047Z,96618.94
2022-08-27T06:08:35.609Z,96618.16
2022-08-27T06:09:38.245Z,96615.53
2022-08-27T06:10:41.373Z,96618.69
2022-08-27T06:11:43.217Z,96613.41
2022-08-27T06:12:45.012Z,96615.78
2022-08-27T06:13:47.327Z,96617.63
2022-08-27T06:14:49.117Z,96618.44
2022-08-27T06:15:51.467Z,96612.06
2022-08-27T06:16:53.264Z,96615.25
2022-08-27T06:17:55.154Z,96608.91
2022-08-27T06:18:57.972Z,96612.84
2022-08-27T06:19:59.767Z,96611.00
2022-08-27T06:21:01.611Z,96607.84
2022-08-27T06:22:10.649Z,96609.94
2022-08-27T06:23:12.878Z,96612.34
2022-08-27T06:24:14.724Z,96612.06
2022-08-27T06:25:16.555Z,96614.72
2022-08-27T06:26:19.323Z,96615.50
2022-08-27T06:27:21.250Z,96613.13
2022-08-27T06:28:24.235Z,96611.00
2022-08-27T06:29:26.180Z,96616.28
2022-08-27T06:30:27.973Z,96611.00
2022-08-27T06:31:31.426Z,96605.19
2022-08-27T06:32:33.340Z,96608.88
2022-08-27T06:33:35.198Z,96605.44
2022-08-27T06:34:37.309Z,96604.13
2022-08-27T06:35:39.225Z,96602.53
2022-08-27T06:36:42.652Z,96605.69
2022-08-27T06:37:44.581Z,96600.41
2022-08-27T06:38:47.625Z,96602.81
2022-08-27T06:39:51.868Z,96598.81
2022-08-27T06:40:54.215Z,96598.28
2022-08-27T06:41:58.927Z,96593.81
2022-08-27T06:43:02.170Z,96596.69
2022-08-27T06:44:03.991Z,96598.03
2022-08-27T06:45:06.250Z,96605.19
2022-08-27T06:46:09.602Z,96592.22
2022-08-27T06:47:11.569Z,96602.53
2022-08-27T06:48:13.480Z,96597.47
2022-08-27T06:49:15.271Z,96598.00
2022-08-27T06:50:20.201Z,96599.34
2022-08-27T06:51:33.623Z,96592.72
2022-08-27T06:52:35.462Z,96597.44
2022-08-27T06:53:37.230Z,96596.91
2022-08-27T06:54:40.471Z,96596.91
2022-08-27T06:55:43.264Z,96598.50
2022-08-27T06:56:45.156Z,96593.72
2022-08-27T06:57:46.977Z,96600.34
2022-08-27T06:58:48.871Z,96596.38
2022-08-27T06:59:50.769Z,96600.63
2022-08-27T07:00:52.645Z,96598.19
2022-08-27T07:01:54.651Z,96598.19
2022-08-27T07:02:56.815Z,96599.00
2022-08-27T07:04:00.005Z,96594.25
2022-08-27T07:05:01.873Z,96593.94
2022-08-27T07:06:05.375Z,96598.19
2022-08-27T07:07:08.371Z,96602.94
2022-08-27T07:08:11.563Z,96597.13
2022-08-27T07:09:14.366Z,96606.38
2022-08-27T07:10:16.160Z,96605.84
2022-08-27T07:11:18.136Z,96600.75
2022-08-27T07:12:21.723Z,96609.75
2022-08-27T07:13:32.765Z,96609.22
2022-08-27T07:14:38.138Z,96608.19
2022-08-27T07:15:40.540Z,96610.28
2022-08-27T07:16:43.440Z,96604.44
2022-08-27T07:17:47.407Z,96601.22
2022-08-27T07:18:51.483Z,96602.28
2022-08-27T07:19:53.406Z,96598.00
2022-08-27T07:20:55.668Z,96602.50
2022-08-27T07:21:57.610Z,96598.53
2022-08-27T07:22:59.609Z,96605.94
2022-08-27T07:24:05.320Z,96601.16
2022-08-27T07:25:09.394Z,96598.47
2022-08-27T07:26:12.632Z,96597.91
2022-08-27T07:27:14.481Z,96598.94
2022-08-27T07:28:16.742Z,96599.47
2022-08-27T07:29:18.665Z,96591.50
2022-08-27T07:30:20.573Z,96596.81
2022-08-27T07:31:23.654Z,96597.63
2022-08-27T07:32:30.441Z,96596.81
2022-08-27T07:33:33.899Z,96591.25
2022-08-27T07:34:35.851Z,96598.41
2022-08-27T07:35:37.705Z,96589.38
2022-08-27T07:36:40.002Z,96595.50
2022-08-27T07:37:42.192Z,96594.16
2022-08-27T07:38:44.098Z,96594.16
2022-08-27T07:39:50.379Z,96601.03
2022-08-27T07:40:52.740Z,96599.44
2022-08-27T07:42:14.714Z,96596.53
2022-08-27T07:43:34.924Z,96597.31
2022-08-27T07:44:37.291Z,96595.19
2022-08-27T07:45:48.850Z,96593.31
2022-08-27T07:46:51.292Z,96595.44
2022-08-27T07:47:53.790Z,96604.16
2022-08-27T07:48:58.425Z,96597.50
2022-08-27T07:50:00.298Z,96602.28
2022-08-27T07:51:05.613Z,96596.41
2022-08-27T07:52:07.435Z,96603.03
2022-08-27T07:53:09.992Z,96598.25
2022-08-27T07:54:12.086Z,96597.44
2022-08-27T07:55:14.686Z,96598.25
2022-08-27T07:56:16.774Z,96602.47
2022-08-27T07:57:18.625Z,96606.16
2022-08-27T07:58:20.474Z,96599.75
2022-08-27T07:59:24.142Z,96602.63
2022-08-27T08:00:26.235Z,96605.56
2022-08-27T08:01:29.184Z,96609.00
2022-08-27T08:02:31.766Z,96600.25
2022-08-27T08:03:33.979Z,96606.34
2022-08-27T08:04:36.115Z,96600.00
2022-08-27T08:05:44.407Z,96607.69
2022-08-27T08:06:46.290Z,96599.72
2022-08-27T08:07:48.153Z,96607.63
2022-08-27T08:08:49.985Z,96603.34
2022-08-27T08:09:52.381Z,96604.38
2022-08-27T08:10:57.096Z,96603.03
2022-08-27T08:11:58.952Z,96599.28
2022-08-27T08:13:00.772Z,96602.50
2022-08-27T08:14:02.651Z,96601.72
2022-08-27T08:15:07.801Z,96599.28
2022-08-27T08:16:10.120Z,96593.41
2022-08-27T08:17:12.121Z,96603.50
2022-08-27T08:18:14.611Z,96594.72
2022-08-27T08:19:16.682Z,96599.47
2022-08-27T08:20:27.577Z,96597.88
2022-08-27T08:21:38.929Z,96591.78
2022-08-27T08:22:40.825Z,96599.72
2022-08-27T08:23:43.176Z,96593.03
2022-08-27T08:24:45.066Z,96604.41
2022-08-27T08:25:46.895Z,96600.66
2022-08-27T08:26:48.881Z,96600.13
2022-08-27T08:27:50.781Z,96599.28
2022-08-27T08:28:52.655Z,96597.63
2022-08-27T08:29:54.437Z,96596.78
2022-08-27T08:30:56.873Z,96607.66
2022-08-27T08:31:58.836Z,96600.97
2022-08-27T08:33:00.620Z,96599.63
2022-08-27T08:34:02.468Z,96604.38
2022-08-27T08:35:05.385Z,96596.63
2022-08-27T08:36:10.204Z,96600.03
2022-08-27T08:37:14.575Z,96596.50
2022-08-27T08:38:19.701Z,96603.63
2022-08-27T08:39:22.193Z,96605.75
2022-08-27T08:40:39.252Z,96605.16
2022-08-27T08:41:43.933Z,96601.19
2022-08-27T08:42:51.570Z,96599.81
2022-08-27T08:43:54.197Z,96605.09
2022-08-27T08:44:58.158Z,96598.63
2022-08-27T08:46:09.065Z,96595.88
2022-08-27T08:47:14.768Z,96604.59
2022-08-27T08:48:19.649Z,96610.16
2022-08-27T08:49:21.428Z,96604.75
2022-08-27T08:50:29.302Z,96599.38
2022-08-27T08:51:40.861Z,96596.94
2022-08-27T08:52:53.066Z,96592.03
2022-08-27T08:54:01.320Z,96599.44
2022-08-27T08:55:21.654Z,96596.69
2022-08-27T08:56:29.329Z,96602.25
2022-08-27T08:57:38.496Z,96597.16
2022-08-27T08:58:52.585Z,96595.78
2022-08-27T08:59:57.120Z,96594.13
2022-08-27T09:01:00.687Z,96597.00
2022-08-27T09:02:02.523Z,96593.25
2022-08-27T09:03:04.461Z,96584.19
2022-08-27T09:04:09.376Z,96588.16
2022-08-27T09:05:11.784Z,96588.66
2022-08-27T09:06:25.689Z,96589.66
2022-08-27T09:07:45.710Z,96596.50
2022-08-27T09:08:49.523Z,96589.00
2022-08-27T09:09:51.365Z,96591.59
2022-08-27T09:10:59.027Z,96589.94
2022-08-27T09:12:15.646Z,96581.84
2022-08-27T09:13:36.293Z,96587.66
2022-08-27T09:14:45.195Z,96591.81
2022-08-27T09:15:49.142Z,96588.00
2022-08-27T09:16:50.978Z,96584.75
2022-08-27T09:18:14.143Z,96577.25
2022-08-27T09:19:16.490Z,96588.63
2022-08-27T09:20:26.049Z,96576.09
2022-08-27T09:21:28.209Z,96577.09
2022-08-27T09:22:50.049Z,96581.84
2022-08-27T09:23:59.193Z,96572.97
2022-08-27T09:25:21.243Z,96572.06
2022-08-27T09:26:27.561Z,96578.13
2022-08-27T09:29:20.536Z,96575.56
2022-08-27T09:30:30.524Z,96580.31
2022-08-27T09:31:36.215Z,96573.59
2022-08-27T09:32:39.487Z,96579.91
2022-08-27T09:33:55.649Z,96584.44
2022-08-27T09:35:03.987Z,96578.22
2022-08-27T09:36:09.634Z,96585.44
2022-08-27T09:37:15.841Z,96581.09
2022-08-27T09:38:30.987Z,96586.31
2022-08-27T09:39:35.116Z,96581.66
2022-08-27T09:40:46.605Z,96576.25
2022-08-27T09:41:49.004Z,96576.13
2022-08-27T09:42:53.579Z,96576.53
2022-08-27T09:43:59.588Z,96577.31
2022-08-27T09:45:01.538Z,96573.44
2022-08-27T09:46:08.002Z,96573.34
2022-08-27T09:47:13.477Z,96576.72
2022-08-27T09:48:18.397Z,96570.16
2022-08-27T09:49:20.271Z,96574.63
2022-08-27T09:50:24.239Z,96574.22
2022-08-27T09:51:27.897Z,96566.59
2022-08-27T09:52:38.015Z,96574.75
2022-08-27T09:53:50.587Z,96566.94
2022-08-27T09:54:56.087Z,96570.00
2022-08-27T09:55:59.543Z,96569.84
2022-08-27T09:57:02.406Z,96563.31
2022-08-27T09:58:06.693Z,96560.53
2022-08-27T09:59:13.123Z,96566.53
2022-08-27T10:00:17.158Z,96560.56
2022-08-27T10:01:29.821Z,96561.69
2022-08-27T10:02:31.769Z,96558.34
2022-08-27T10:03:34.281Z,96564.47
2022-08-27T10:04:51.307Z,96559.56
2022-08-27T10:05:54.882Z,96552.75
2022-08-27T10:06:56.697Z,96560.00
2022-08-27T10:08:01.097Z,96569.66
2022-08-27T10:09:13.798Z,96564.31
2022-08-27T10:10:25.948Z,96562.75
2022-08-27T10:11:37.501Z,96557.72
2022-08-27T10:12:55.630Z,96563.50
2022-08-27T10:13:57.446Z,96559.84
2022-08-27T10:15:00.650Z,96556.06
2022-08-27T10:16:07.249Z,96560.28
2022-08-27T10:17:18.334Z,96553.16
2022-08-27T10:18:26.649Z,96561.06
2022-08-27T10:19:28.439Z,96553.88
2022-08-27T10:20:49.463Z,96560.63
2022-08-27T10:22:11.905Z,96561.53
2022-08-27T10:23:34.354Z,96557.59
2022-08-27T10:24:39.123Z,96555.72
2022-08-27T10:25:50.037Z,96557.28
2022-08-27T10:27:10.928Z,96551.72
2022-08-27T10:28:18.816Z,96548.59
2022-08-27T10:29:41.789Z,96553.03
2022-08-27T10:31:06.305Z,96550.78
2022-08-27T10:32:08.231Z,96548.44
2022-08-27T10:33:22.822Z,96541.47
2022-08-27T10:34:50.607Z,96546.22
2022-08-27T10:35:54.984Z,96548.31
2022-08-27T10:37:15.713Z,96545.22
2022-08-27T10:38:24.362Z,96547.28
2022-08-27T10:39:44.847Z,96549.84
2022-08-27T10:40:52.049Z,96547.19
2022-08-27T10:42:03.114Z,96545.34
2022-08-27T10:43:14.066Z,96541.44
2022-08-27T10:44:35.016Z,96541.91
2022-08-27T10:45:43.008Z,96536.41
2022-08-27T10:46:47.523Z,96540.81
2022-08-27T10:48:04.185Z,96535.00
2022-08-27T10:49:26.962Z,96536.13
2022-08-27T10:50:48.425Z,96531.13
2022-08-27T10:52:06.429Z,96532.06
2022-08-27T10:53:30.732Z,96529.06
2022-08-27T10:54:40.530Z,96529.38
2022-08-27T10:55:43.282Z,96528.09
2022-08-27T10:56:45.029Z,96521.66
2022-08-27T10:58:05.469Z,96527.47
2022-08-27T10:59:19.287Z,96521.78
2022-08-27T11:00:22.640Z,96526.19
2022-08-27T11:01:47.981Z,96521.00
2022-08-27T11:02:49.990Z,96524.91
2022-08-27T11:03:58.861Z,96526.47
2022-08-27T11:05:03.747Z,96524.75
2022-08-27T11:06:28.249Z,96523.22
2022-08-27T11:07:33.204Z,96515.94
2022-08-27T11:08:43.629Z,96518.78
2022-08-27T11:09:56.160Z,96518.13
2022-08-27T11:11:26.074Z,96501.13
2022-08-27T11:12:28.960Z,96510.56
2022-08-27T11:13:35.505Z,96516.72
2022-08-27T11:14:41.903Z,96515.41
2022-08-27T11:15:46.491Z,96507.16
2022-08-27T11:16:51.897Z,96509.47
2022-08-27T11:17:57.309Z,96509.97
2022-08-27T11:19:03.072Z,96510.66
2022-08-27T11:20:10.955Z,96505.97
2022-08-27T11:21:25.561Z,96498.13
2022-08-27T11:22:34.853Z,96508.84
2022-08-27T11:23:41.203Z,96511.22
2022-08-27T11:24:57.609Z,96509.75
2022-08-27T11:26:02.611Z,96505.97
2022-08-27T11:27:07.466Z,96503.19
2022-08-27T11:28:10.977Z,96494.81
2022-08-27T11:29:28.454Z,96496.25
2022-08-27T11:30:35.719Z,96493.28
2022-08-27T11:31:44.050Z,96489.53
2022-08-27T11:32:46.074Z,96490.78
2022-08-27T11:33:54.348Z,96491.13
2022-08-27T11:35:00.823Z,96486.50
2022-08-27T11:36:02.651Z,96487.00
2022-08-27T11:37:23.188Z,96498.00
2022-08-27T11:38:38.791Z,96486.06
2022-08-27T11:39:51.785Z,96487.97
2022-08-27T11:41:08.123Z,96490.16
2022-08-27T11:42:14.573Z,96491.75
2022-08-27T11:43:22.768Z,96493.34
2022-08-27T11:44:25.769Z,96491.88
2022-08-27T11:45:35.072Z,96497.84
2022-08-27T11:46:44.367Z,96498.13
2022-08-27T11:47:57.538Z,96496.41
2022-08-27T11:49:03.381Z,96499.53
2022-08-27T11:50:08.374Z,96494.13
2022-08-27T11:51:18.875Z,96504.22
2022-08-27T11:52:22.796Z,96507.53
2022-08-27T11:53:28.412Z,96510.91
2022-08-27T11:54:32.493Z,96505.81
2022-08-27T11:55:38.873Z,96511.22
2022-08-27T11:56:43.082Z,96510.94
2022-08-27T11:57:45.636Z,96510.63
2022-08-27T11:58:52.639Z,96512.03
2022-08-27T11:59:56.013Z,96510.81
2022-08-27T12:01:03.791Z,96511.13
2022-08-27T12:02:20.952Z,96508.91
2022-08-27T12:03:32.497Z,96505.72
2022-08-27T12:04:36.710Z,96505.25
2022-08-27T12:05:38.567Z,96509.66
2022-08-27T12:06:43.387Z,96506.69
2022-08-27T12:07:46.440Z,96513.75
2022-08-27T12:08:48.594Z,96519.28
2022-08-27T12:09:53.881Z,96509.56
2022-08-27T12:11:07.597Z,96512.22
2022-08-27T12:12:09.348Z,96519.28
2022-08-27T12:13:19.904Z,96511.41
2022-08-27T12:14:40.316Z,96512.50
2022-08-27T12:16:00.695Z,96512.84
2022-08-27T12:17:05.377Z,96513.78
2022-08-27T12:18:10.468Z,96510.81
2022-08-27T12:19:15.449Z,96505.78
2022-08-27T12:20:35.982Z,96508.56
2022-08-27T12:21:45.100Z,96515.34
2022-08-27T12:23:28.854Z,96510.91
2022-08-27T12:24:55.508Z,96508.88
2022-08-27T12:26:00.616Z,96506.97
2022-08-27T12:27:14.776Z,96504.75
2022-08-27T12:28:26.572Z,96500.97
2022-08-27T12:29:34.360Z,96503.16
2022-08-27T12:30:38.786Z,96502.69
2022-08-27T12:31:42.119Z,96498.44
2022-08-27T12:32:45.236Z,96511.03
2022-08-27T12:33:48.300Z,96501.59
2022-08-27T12:34:57.710Z,96503.34
2022-08-27T12:36:07.814Z,96490.13
2022-08-27T12:37:10.234Z,96492.63
2022-08-27T12:38:21.065Z,96485.56
2022-08-27T12:39:29.034Z,96488.09
2022-08-27T12:40:38.619Z,96482.75
2022-08-27T12:41:45.032Z,96484.97
2022-08-27T12:42:47.044Z,96496.28
2022-08-27T12:43:49.608Z,96506.84
2022-08-27T12:44:55.400Z,96504.78
2022-08-27T12:45:57.425Z,96507.78
2022-08-27T12:47:02.252Z,96511.25
2022-08-27T12:48:09.466Z,96506.69
2022-08-27T12:49:36.791Z,96505.13
2022-08-27T12:50:33.396Z,96502.09
2022-08-27T12:51:38.270Z,96507.44
2022-08-27T12:52:42.671Z,96503.50
2022-08-27T12:53:46.973Z,96502.22
2022-08-27T12:54:51.660Z,96501.00
2022-08-27T12:55:59.832Z,96499.59
2022-08-27T12:57:04.881Z,96501.97
2022-08-27T12:58:26.246Z,96499.63
2022-08-27T12:59:28.080Z,96507.34
2022-08-27T13:00:36.475Z,96504.34
2022-08-27T13:01:54.416Z,96504.16
2022-08-27T13:03:09.056Z,96509.34
2022-08-27T13:04:20.653Z,96504.78
2022-08-27T13:05:23.028Z,96509.19
2022-08-27T13:06:30.369Z,96504.97
2022-08-27T13:07:37.763Z,96502.91
2022-08-27T13:08:39.696Z,96505.56
2022-08-27T13:09:41.532Z,96503.38
2022-08-27T13:10:43.425Z,96501.16
2022-08-27T13:11:48.137Z,96502.59
2022-08-27T13:13:00.645Z,96492.34
2022-08-27T13:14:10.389Z,96494.88
2022-08-27T13:15:14.470Z,96491.25
2022-08-27T13:16:22.042Z,96495.81
2022-08-27T13:17:24.092Z,96497.22
2022-08-27T13:18:30.063Z,96491.44
2022-08-27T13:19:34.660Z,96495.22
2022-08-27T13:20:37.923Z,96491.91
2022-08-27T13:21:39.779Z,96493.50
2022-08-27T13:22:43.887Z,96484.19
2022-08-27T13:23:47.917Z,96492.22
2022-08-27T13:24:50.927Z,96484.50
2022-08-27T13:25:57.634Z,96499.91
2022-08-27T13:27:00.121Z,96494.72
2022-08-27T13:28:13.713Z,96495.03
2022-08-27T13:29:15.904Z,96495.16
2022-08-27T13:30:35.233Z,96493.75
2022-08-27T13:31:38.726Z,96491.25
2022-08-27T13:32:41.321Z,96488.88
2022-08-27T13:33:44.232Z,96489.00
2022-08-27T13:34:46.685Z,96481.31
2022-08-27T13:35:48.769Z,96476.28
2022-08-27T13:36:56.327Z,96482.25
2022-08-27T13:37:59.321Z,96479.72
2022-08-27T13:39:02.340Z,96473.13
2022-08-27T13:40:05.446Z,96477.38
2022-08-27T13:41:27.826Z,96474.84
2022-08-27T13:42:31.518Z,96473.56
2022-08-27T13:43:36.456Z,96472.19
2022-08-27T13:44:40.884Z,96475.63
2022-08-27T13:45:49.106Z,96475.28
2022-08-27T13:46:53.769Z,96480.44
2022-08-27T13:47:55.832Z,96485.00
2022-08-27T13:48:59.038Z,96478.25
2022-08-27T13:50:21.077Z,96481.13
2022-08-27T13:51:30.739Z,96479.41
2022-08-27T13:52:34.441Z,96471.84
2022-08-27T13:53:55.105Z,96477.84
2022-08-27T13:55:05.994Z,96474.41
2022-08-27T13:56:07.846Z,96477.59
2022-08-27T13:57:11.490Z,96474.41
2022-08-27T13:58:25.425Z,96473.63
2022-08-27T13:59:28.177Z,96476.13
2022-08-27T14:00:32.082Z,96480.09
2022-08-27T14:01:33.944Z,96482.75
2022-08-27T14:02:36.007Z,96487.31
2022-08-27T14:03:47.372Z,96486.72
2022-08-27T14:05:08.015Z,96492.56
2022-08-27T14:06:10.413Z,96490.66
2022-08-27T14:07:13.694Z,96487.78
2022-08-27T14:08:18.130Z,96494.88
2022-08-27T14:09:23.128Z,96486.38
2022-08-27T14:10:25.569Z,96492.22
2022-08-27T14:11:27.697Z,96490.66
2022-08-27T14:12:35.424Z,96486.25
2022-08-27T14:13:43.689Z,96483.88
2022-08-27T14:14:54.527Z,96485.13
2022-08-27T14:15:57.902Z,96489.69
2022-08-27T14:17:00.577Z,96488.91
2022-08-27T14:18:03.359Z,96489.69
2022-08-27T14:19:09.339Z,96488.25
2022-08-27T14:20:11.132Z,96486.34
2022-08-27T14:21:13.110Z,96488.53
2022-08-27T14:22:14.958Z,96492.94
2022-08-27T14:23:17.871Z,96495.47
2022-08-27T14:24:19.892Z,96491.69
2022-08-27T14:25:22.701Z,96496.88
2022-08-27T14:26:26.981Z,96505.22
2022-08-27T14:27:29.297Z,96502.38
2022-08-27T14:28:32.219Z,96507.06
2022-08-27T14:29:34.115Z,96504.97
2022-08-27T14:30:36.517Z,96507.16
2022-08-27T14:31:38.401Z,96504.34
2022-08-27T14:32:42.643Z,96504.66
2022-08-27T14:33:47.536Z,96497.56
2022-08-27T14:34:50.352Z,96499.78
2022-08-27T14:35:52.285Z,96485.28
2022-08-27T14:36:55.005Z,96489.09
2022-08-27T14:37:57.597Z,96493.13
2022-08-27T14:39:01.377Z,96489.50
2022-08-27T14:40:04.562Z,96489.50
2022-08-27T14:41:07.724Z,96484.50
2022-08-27T14:42:10.020Z,96485.28
2022-08-27T14:43:11.874Z,96493.13
2022-08-27T14:44:13.761Z,96492.34
2022-08-27T14:45:15.667Z,96489.97
2022-08-27T14:46:23.998Z,96491.09
2022-08-27T14:47:29.393Z,96491.38
2022-08-27T14:48:35.169Z,96483.66
2022-08-27T14:49:39.945Z,96485.22
2022-08-27T14:50:42.600Z,96491.88
2022-08-27T14:51:46.207Z,96490.75
2022-08-27T14:52:48.018Z,96494.72
2022-08-27T14:53:51.410Z,96492.34
2022-08-27T14:54:53.317Z,96493.41
2022-08-27T14:55:56.276Z,96491.56
2022-08-27T14:56:59.337Z,96489.19
2022-08-27T14:58:01.378Z,96495.44
2022-08-27T14:59:03.383Z,96497.97
2022-08-27T15:00:07.145Z,96499.34
2022-08-27T15:01:09.768Z,96508.47
2022-08-27T15:02:14.097Z,96503.72
2022-08-27T15:03:15.888Z,96512.84
2022-08-27T15:04:17.675Z,96510.00
2022-08-27T15:05:22.515Z,96502.28
2022-08-27T15:06:27.433Z,96507.63
2022-08-27T15:07:29.416Z,96502.44
2022-08-27T15:08:32.288Z,96496.63
2022-08-27T15:09:34.220Z,96498.81
2022-08-27T15:10:36.140Z,96501.00
2022-08-27T15:11:39.944Z,96494.88
2022-08-27T15:12:42.054Z,96496.25
2022-08-27T15:13:44.527Z,96500.03
2022-08-27T15:14:46.378Z,96493.09
2022-08-27T15:15:48.648Z,96499.56
2022-08-27T15:16:54.681Z,96495.88
2022-08-27T15:17:56.581Z,96490.06
2022-08-27T15:19:01.066Z,96488.00
2022-08-27T15:20:06.777Z,96490.19
2022-08-27T15:21:08.888Z,96493.16
2022-08-27T15:22:18.201Z,96494.56
2022-08-27T15:23:20.043Z,96495.66
2022-08-27T15:24:26.728Z,96495.66
2022-08-27T15:25:28.698Z,96494.06
2022-08-27T15:26:30.629Z,96492.81
2022-08-27T15:27:38.170Z,96495.00
2022-08-27T15:28:40.809Z,96489.19
2022-08-27T15:29:43.054Z,96491.53
2022-08-27T15:30:44.982Z,96495.91
2022-08-27T15:31:47.311Z,96488.22
2022-08-27T15:32:49.270Z,96485.84
2022-08-27T15:33:51.205Z,96478.91
2022-08-27T15:34:53.833Z,96478.59
2022-08-27T15:35:58.963Z,96473.56
2022-08-27T15:37:04.388Z,96475.47
2022-08-27T15:38:06.457Z,96459.75
2022-08-27T15:39:08.830Z,96471.53
2022-08-27T15:40:12.225Z,96471.53
2022-08-27T15:41:14.409Z,96470.41
2022-08-27T15:42:16.534Z,96469.34
2022-08-27T15:43:18.460Z,96467.44
2022-08-27T15:44:20.468Z,96464.00
2022-08-27T15:45:25.564Z,96464.47
2022-08-27T15:46:29.301Z,96469.81
2022-08-27T15:47:31.186Z,96459.75
2022-08-27T15:48:33.509Z,96462.75
2022-08-27T15:49:35.369Z,96460.38
2022-08-27T15:50:37.717Z,96458.19
2022-08-27T15:51:40.383Z,96451.72
2022-08-27T15:52:43.093Z,96457.88
2022-08-27T15:53:45.047Z,96452.84
2022-08-27T15:54:48.579Z,96459.25
2022-08-27T15:55:50.712Z,96452.19
2022-08-27T15:56:52.485Z,96455.75
2022-08-27T15:57:55.852Z,96456.84
2022-08-27T15:58:57.678Z,96452.13
2022-08-27T15:59:59.406Z,96455.28
2022-08-27T16:01:11.822Z,96459.84
2022-08-27T16:02:21.329Z,96462.81
2022-08-27T16:03:28.128Z,96455.09
2022-08-27T16:04:37.382Z,96454.31
2022-08-27T16:05:40.321Z,96456.19
2022-08-27T16:06:42.324Z,96451.94
2022-08-27T16:07:44.922Z,96454.91
2022-08-27T16:08:47.356Z,96457.41
2022-08-27T16:09:49.207Z,96447.81
2022-08-27T16:10:51.106Z,96446.84
2022-08-27T16:11:52.899Z,96440.25
2022-08-27T16:12:54.877Z,96442.91
2022-08-27T16:13:56.703Z,96444.00
2022-08-27T16:14:58.510Z,96442.44
2022-08-27T16:16:01.242Z,96449.63
2022-08-27T16:17:03.117Z,96447.28
2022-08-27T16:18:04.909Z,96454.81
2022-08-27T16:19:08.010Z,96455.59
2022-08-27T16:20:11.313Z,96458.75
2022-08-27T16:21:13.115Z,96458.75
2022-08-27T16:22:16.380Z,96460.91
2022-08-27T16:23:20.271Z,96461.22
2022-08-27T16:24:22.934Z,96460.44
2022-08-27T16:25:24.904Z,96466.84
2022-08-27T16:26:26.704Z,96472.47
2022-08-27T16:27:28.460Z,96475.44
2022-08-27T16:28:30.351Z,96477.13
2022-08-27T16:29:32.276Z,96481.69
2022-08-27T16:30:34.089Z,96480.09
2022-08-27T16:31:37.357Z,96479.31
2022-08-27T16:32:40.788Z,96482.28
2022-08-27T16:33:42.911Z,96478.34
2022-08-27T16:34:45.215Z,96481.31
2022-08-27T16:35:47.119Z,96487.75
2022-08-27T16:36:49.055Z,96486.16
2022-08-27T16:37:51.159Z,96486.16
2022-08-27T16:38:53.030Z,96487.25
2022-08-27T16:39:54.972Z,96483.00
2022-08-27T16:40:57.099Z,96484.09
2022-08-27T16:41:58.874Z,96487.53
2022-08-27T16:43:01.689Z,96494.75
2022-08-27T16:44:03.864Z,96488.63
2022-08-27T16:45:05.993Z,96485.75
2022-08-27T16:46:07.955Z,96497.03
2022-08-27T16:47:09.820Z,96494.97
2022-08-27T16:48:30.140Z,96491.81
2022-08-27T16:49:50.782Z,96498.25
2022-08-27T16:50:52.639Z,96498.72
2022-08-27T16:51:54.487Z,96493.19
2022-08-27T16:52:57.209Z,96493.50
2022-08-27T16:53:59.201Z,96495.38
2022-08-27T16:55:01.087Z,96496.16
2022-08-27T16:56:03.183Z,96497.25
2022-08-27T16:57:05.130Z,96501.31
2022-08-27T16:58:10.479Z,96502.50
2022-08-27T16:59:13.398Z,96499.16
2022-08-27T17:00:15.279Z,96504.50
2022-08-27T17:01:18.498Z,96501.81
2022-08-27T17:02:30.333Z,96504.50
2022-08-27T17:03:58.020Z,96511.38
2022-08-27T17:05:12.135Z,96512.19
2022-08-27T17:06:21.864Z,96519.38
2022-08-27T17:07:25.919Z,96522.38
2022-08-27T17:08:28.948Z,96525.03
2022-08-27T17:09:30.749Z,96528.00
2022-08-27T17:10:34.119Z,96535.50
2022-08-27T17:11:36.505Z,96524.81
2022-08-27T17:12:38.303Z,96530.94
2022-08-27T17:13:40.105Z,96532.34
2022-08-27T17:14:41.890Z,96530.75
2022-08-27T17:15:44.566Z,96532.34
2022-08-27T17:16:46.428Z,96532.34
2022-08-27T17:17:48.271Z,96536.06
2022-08-27T17:18:50.738Z,96537.16
2022-08-27T17:19:52.537Z,96529.75
2022-08-27T17:20:55.209Z,96530.94
2022-08-27T17:21:57.016Z,96528.88
2022-08-27T17:22:59.556Z,96528.66
2022-08-27T17:24:02.839Z,96531.09
2022-08-27T17:25:06.432Z,96532.22
2022-08-27T17:26:09.590Z,96525.28
2022-08-27T17:27:11.513Z,96539.72
2022-08-27T17:28:13.654Z,96533.56
2022-08-27T17:29:15.765Z,96535.44
2022-08-27T17:30:17.672Z,96532.56
2022-08-27T17:31:27.789Z,96536.63
2022-08-27T17:32:31.497Z,96532.88
2022-08-27T17:33:39.359Z,96533.97
2022-08-27T17:34:41.208Z,96545.69
2022-08-27T17:35:43.008Z,96539.38
2022-08-27T17:36:46.077Z,96541.53
2022-08-27T17:37:48.457Z,96543.72
2022-08-27T17:38:51.027Z,96542.44
2022-08-27T17:39:53.464Z,96545.38
2022-08-27T17:40:55.328Z,96551.81
2022-08-27T17:41:57.316Z,96560.09
2022-08-27T17:42:59.164Z,96555.03
2022-08-27T17:44:02.479Z,96556.13
2022-08-27T17:45:05.004Z,96557.22
2022-08-27T17:46:07.346Z,96564.13
2022-08-27T17:47:09.386Z,96578.50
2022-08-27T17:48:15.114Z,96577.50
2022-08-27T17:49:21.500Z,96578.63
2022-08-27T17:50:23.282Z,96584.22
2022-08-27T17:51:25.417Z,96579.69
2022-08-27T17:52:27.214Z,96586.38
2022-08-27T17:53:29.160Z,96584.50
2022-08-27T17:54:41.630Z,96586.38
2022-08-27T17:55:43.475Z,96594.16
2022-08-27T17:56:45.376Z,96594.75
2022-08-27T17:57:47.200Z,96597.91
2022-08-27T17:58:50.459Z,96592.88
2022-08-27T17:59:54.773Z,96599.59
2022-08-27T18:00:56.651Z,96594.25
2022-08-27T18:01:59.499Z,96590.28
2022-08-27T18:03:01.293Z,96580.72
2022-08-27T18:04:04.399Z,96585.28
2022-08-27T18:05:07.681Z,96578.94
2022-08-27T18:06:09.652Z,96589.38
2022-08-27T18:07:11.555Z,96587.00
2022-08-27T18:08:15.028Z,96604.56
2022-08-27T18:09:16.856Z,96594.50
2022-08-27T18:10:22.881Z,96598.53